sensor_id;sensor_type;location;lat;lon;timestamp;pressure;altitude;pressure_sealevel;temperature;humidity
13456;BME280;6800;50.940;6.940;2022-07-29T00:02:19;100724.22;;;32.42;25.29
13456;BME280;6800;50.940;6.940;2022-07-29T00:06:20;100736.31;;;32.39;25.29
13456;BME280;6800;50.940;6.940;2022-07-29T00:10:21;100726.63;;;32.50;25.07
13456;BME280;6800;50.940;6.940;2022-07-29T00:14:21;100726.75;;;32.37;25.34
13456;BME280;6800;50.940;6.940;2022-07-29T00:18:21;100723.63;;;31.85;26.16
13456;BME280;6800;50.940;6.940;2022-07-29T00:22:22;100717.56;;;31.22;27.03
13456;BME280;6800;50.940;6.940;2022-07-29T00:26:22;100716.31;;;30.12;28.83
13456;BME280;6800;50.940;6.940;2022-07-29T00:30:22;100707.72;;;31.34;27.13
13456;BME280;6800;50.940;6.940;2022-07-29T00:34:23;100706.59;;;30.93;27.49
13456;BME280;6800;50.940;6.940;2022-07-29T00:38:42;100714.03;;;30.59;28.15
13456;BME280;6800;50.940;6.940;2022-07-29T00:42:49;100704.22;;;30.27;28.14
13456;BME280;6800;50.940;6.940;2022-07-29T00:46:50;100703.28;;;30.91;27.56
13456;BME280;6800;50.940;6.940;2022-07-29T00:50:50;100690.88;;;30.83;27.82
13456;BME280;6800;50.940;6.940;2022-07-29T00:54:51;100679.91;;;31.95;26.02
13456;BME280;6800;50.940;6.940;2022-07-29T00:58:55;100676.88;;;32.03;26.15
13456;BME280;6800;50.940;6.940;2022-07-29T01:02:56;100668.47;;;31.56;26.72
13456;BME280;6800;50.940;6.940;2022-07-29T01:06:57;100665.09;;;31.61;26.51
13456;BME280;6800;50.940;6.940;2022-07-29T01:10:59;100670.19;;;31.51;26.46
13456;BME280;6800;50.940;6.940;2022-07-29T01:15:02;100660.97;;;31.58;27.01
13456;BME280;6800;50.940;6.940;2022-07-29T01:19:29;100660.88;;;31.22;27.08
13456;BME280;6800;50.940;6.940;2022-07-29T01:32:12;100648.56;;;31.08;28.04
13456;BME280;6800;50.940;6.940;2022-07-29T01:36:17;100648.34;;;31.34;27.47
13456;BME280;6800;50.940;6.940;2022-07-29T01:40:24;100640.91;;;32.20;26.58
13456;BME280;6800;50.940;6.940;2022-07-29T01:44:31;100643.25;;;32.17;26.60
13456;BME280;6800;50.940;6.940;2022-07-29T01:48:42;100631.00;;;32.44;26.15
13456;BME280;6800;50.940;6.940;2022-07-29T01:52:55;100640.91;;;32.50;26.14
13456;BME280;6800;50.940;6.940;2022-07-29T01:56:58;100643.03;;;32.48;25.56
13456;BME280;6800;50.940;6.940;2022-07-29T02:01:04;100636.56;;;32.49;25.45
13456;BME280;6800;50.940;6.940;2022-07-29T02:05:07;100634.13;;;32.00;25.90
13456;BME280;6800;50.940;6.940;2022-07-29T02:09:12;100631.25;;;32.13;25.57
13456;BME280;6800;50.940;6.940;2022-07-29T02:13:15;100621.81;;;31.49;26.18
13456;BME280;6800;50.940;6.940;2022-07-29T02:17:23;100625.03;;;31.94;25.85
13456;BME280;6800;50.940;6.940;2022-07-29T02:21:27;100632.66;;;31.79;26.22
13456;BME280;6800;50.940;6.940;2022-07-29T02:25:31;100620.94;;;32.21;25.71
13456;BME280;6800;50.940;6.940;2022-07-29T02:29:32;100621.72;;;32.10;25.50
13456;BME280;6800;50.940;6.940;2022-07-29T02:33:34;100621.59;;;31.87;26.09
13456;BME280;6800;50.940;6.940;2022-07-29T02:37:36;100625.09;;;32.06;25.07
13456;BME280;6800;50.940;6.940;2022-07-29T02:41:46;100623.09;;;31.83;25.33
13456;BME280;6800;50.940;6.940;2022-07-29T02:45:48;100625.88;;;31.95;25.34
13456;BME280;6800;50.940;6.940;2022-07-29T02:50:09;100635.28;;;31.86;25.35
13456;BME280;6800;50.940;6.940;2022-07-29T02:54:20;100638.91;;;31.80;26.03
13456;BME280;6800;50.940;6.940;2022-07-29T02:58:29;100649.50;;;31.63;26.66
13456;BME280;6800;50.940;6.940;2022-07-29T03:02:35;100664.78;;;31.69;26.98
13456;BME280;6800;50.940;6.940;2022-07-29T03:06:37;100672.88;;;31.69;27.16
13456;BME280;6800;50.940;6.940;2022-07-29T03:10:44;100680.00;;;31.45;27.96
13456;BME280;6800;50.940;6.940;2022-07-29T03:14:46;100677.59;;;31.13;28.88
13456;BME280;6800;50.940;6.940;2022-07-29T03:18:47;100672.56;;;31.16;28.44
13456;BME280;6800;50.940;6.940;2022-07-29T03:22:47;100669.50;;;31.13;28.83
13456;BME280;6800;50.940;6.940;2022-07-29T03:26:48;100666.75;;;31.19;28.59
13456;BME280;6800;50.940;6.940;2022-07-29T03:30:49;100673.13;;;31.25;28.29
13456;BME280;6800;50.940;6.940;2022-07-29T03:34:49;100672.84;;;31.08;28.69
13456;BME280;6800;50.940;6.940;2022-07-29T03:38:50;100671.47;;;30.99;29.15
13456;BME280;6800;50.940;6.940;2022-07-29T03:42:51;100673.25;;;30.80;28.76
13456;BME280;6800;50.940;6.940;2022-07-29T03:46:55;100676.91;;;30.93;28.24
13456;BME280;6800;50.940;6.940;2022-07-29T03:50:57;100678.81;;;30.92;28.72
13456;BME280;6800;50.940;6.940;2022-07-29T03:54:58;100676.00;;;30.74;28.37
13456;BME280;6800;50.940;6.940;2022-07-29T03:58:58;100675.69;;;30.57;28.67
13456;BME280;6800;50.940;6.940;2022-07-29T04:03:02;100687.19;;;30.71;28.58
13456;BME280;6800;50.940;6.940;2022-07-29T04:07:03;100680.91;;;30.83;28.03
13456;BME280;6800;50.940;6.940;2022-07-29T04:11:04;100675.47;;;30.15;29.78
13456;BME280;6800;50.940;6.940;2022-07-29T04:15:06;100674.47;;;30.53;29.16
13456;BME280;6800;50.940;6.940;2022-07-29T04:19:06;100675.78;;;30.44;29.09
13456;BME280;6800;50.940;6.940;2022-07-29T04:23:06;100673.25;;;30.49;28.76
13456;BME280;6800;50.940;6.940;2022-07-29T04:27:06;100685.75;;;29.80;29.09
13456;BME280;6800;50.940;6.940;2022-07-29T04:31:07;100680.22;;;28.83;31.10
13456;BME280;6800;50.940;6.940;2022-07-29T04:35:07;100683.53;;;28.92;31.30
13456;BME280;6800;50.940;6.940;2022-07-29T04:39:08;100688.69;;;29.52;29.98
13456;BME280;6800;50.940;6.940;2022-07-29T04:43:08;100683.75;;;29.29;30.80
13456;BME280;6800;50.940;6.940;2022-07-29T04:47:09;100692.41;;;29.12;30.97
13456;BME280;6800;50.940;6.940;2022-07-29T04:51:09;100689.97;;;29.50;30.12
13456;BME280;6800;50.940;6.940;2022-07-29T04:55:09;100696.34;;;29.75;29.92
13456;BME280;6800;50.940;6.940;2022-07-29T04:59:09;100698.66;;;29.52;30.19
13456;BME280;6800;50.940;6.940;2022-07-29T05:03:10;100706.94;;;29.44;30.32
13456;BME280;6800;50.940;6.940;2022-07-29T05:07:10;100701.94;;;29.01;30.20
13456;BME280;6800;50.940;6.940;2022-07-29T05:11:10;100704.63;;;29.60;29.44
13456;BME280;6800;50.940;6.940;2022-07-29T05:15:11;100708.06;;;30.00;28.43
13456;BME280;6800;50.940;6.940;2022-07-29T05:19:12;100719.75;;;29.74;29.11
13456;BME280;6800;50.940;6.940;2022-07-29T05:23:12;100715.06;;;30.14;28.82
13456;BME280;6800;50.940;6.940;2022-07-29T05:27:12;100718.94;;;30.31;28.20
13456;BME280;6800;50.940;6.940;2022-07-29T05:31:13;100718.50;;;30.78;28.24
13456;BME280;6800;50.940;6.940;2022-07-29T05:35:15;100716.53;;;30.10;29.01
13456;BME280;6800;50.940;6.940;2022-07-29T05:39:15;100719.94;;;29.86;29.67
13456;BME280;6800;50.940;6.940;2022-07-29T05:43:16;100727.97;;;31.43;26.79
13456;BME280;6800;50.940;6.940;2022-07-29T05:47:16;100742.88;;;31.71;26.87
13456;BME280;6800;50.940;6.940;2022-07-29T05:51:16;100748.56;;;31.63;26.57
13456;BME280;6800;50.940;6.940;2022-07-29T05:55:16;100758.72;;;31.67;26.42
13456;BME280;6800;50.940;6.940;2022-07-29T05:59:17;100762.31;;;31.79;26.25
13456;BME280;6800;50.940;6.940;2022-07-29T06:03:17;100772.69;;;31.82;26.29
13456;BME280;6800;50.940;6.940;2022-07-29T06:07:17;100771.31;;;32.34;26.11
13456;BME280;6800;50.940;6.940;2022-07-29T06:11:18;100775.91;;;32.52;25.75
13456;BME280;6800;50.940;6.940;2022-07-29T06:15:18;100775.72;;;32.65;25.12
13456;BME280;6800;50.940;6.940;2022-07-29T06:19:18;100774.81;;;32.71;24.99
13456;BME280;6800;50.940;6.940;2022-07-29T06:23:19;100788.91;;;32.73;25.63
13456;BME280;6800;50.940;6.940;2022-07-29T06:27:20;100785.91;;;32.81;25.20
13456;BME280;6800;50.940;6.940;2022-07-29T06:31:20;100793.47;;;32.43;26.01
13456;BME280;6800;50.940;6.940;2022-07-29T06:35:21;100791.53;;;32.79;25.59
13456;BME280;6800;50.940;6.940;2022-07-29T06:39:21;100782.19;;;32.64;25.67
13456;BME280;6800;50.940;6.940;2022-07-29T06:43:22;100778.16;;;32.18;26.07
13456;BME280;6800;50.940;6.940;2022-07-29T06:47:22;100775.19;;;31.59;26.67
13456;BME280;6800;50.940;6.940;2022-07-29T06:51:22;100784.75;;;32.22;25.94
13456;BME280;6800;50.940;6.940;2022-07-29T06:55:23;100777.59;;;32.28;26.34
13456;BME280;6800;50.940;6.940;2022-07-29T06:59:23;100776.03;;;32.39;26.49
13456;BME280;6800;50.940;6.940;2022-07-29T07:03:23;100787.31;;;32.36;28.05
13456;BME280;6800;50.940;6.940;2022-07-29T07:07:24;100790.16;;;32.22;28.75
13456;BME280;6800;50.940;6.940;2022-07-29T07:11:25;100783.41;;;32.31;30.08
13456;BME280;6800;50.940;6.940;2022-07-29T07:15:29;100787.22;;;32.24;29.37
13456;BME280;6800;50.940;6.940;2022-07-29T07:19:29;100776.56;;;32.11;29.72
13456;BME280;6800;50.940;6.940;2022-07-29T07:23:30;100782.03;;;30.04;33.15
13456;BME280;6800;50.940;6.940;2022-07-29T07:27:30;100782.13;;;31.98;29.38
13456;BME280;6800;50.940;6.940;2022-07-29T07:31:30;100792.59;;;32.49;29.26
13456;BME280;6800;50.940;6.940;2022-07-29T07:35:31;100781.09;;;32.83;29.21
13456;BME280;6800;50.940;6.940;2022-07-29T07:39:31;100781.09;;;32.83;29.54
13456;BME280;6800;50.940;6.940;2022-07-29T07:43:31;100787.91;;;32.38;29.72
13456;BME280;6800;50.940;6.940;2022-07-29T07:47:32;100792.09;;;32.70;29.13
13456;BME280;6800;50.940;6.940;2022-07-29T07:51:32;100808.72;;;32.19;29.42
13456;BME280;6800;50.940;6.940;2022-07-29T07:55:33;100794.94;;;32.75;29.86
13456;BME280;6800;50.940;6.940;2022-07-29T07:59:33;100796.63;;;32.58;29.68
13456;BME280;6800;50.940;6.940;2022-07-29T08:03:33;100800.97;;;32.59;29.23
13456;BME280;6800;50.940;6.940;2022-07-29T08:07:34;100791.94;;;32.65;30.12
13456;BME280;6800;50.940;6.940;2022-07-29T08:11:34;100785.28;;;32.79;29.97
13456;BME280;6800;50.940;6.940;2022-07-29T08:15:35;100772.34;;;32.69;29.45
13456;BME280;6800;50.940;6.940;2022-07-29T08:19:35;100777.25;;;29.99;33.28
13456;BME280;6800;50.940;6.940;2022-07-29T08:23:37;100771.63;;;32.08;30.34
13456;BME280;6800;50.940;6.940;2022-07-29T08:27:46;100781.69;;;32.19;29.58
13456;BME280;6800;50.940;6.940;2022-07-29T08:31:46;100780.03;;;32.18;30.78
13456;BME280;6800;50.940;6.940;2022-07-29T08:35:47;100768.28;;;30.32;33.85
13456;BME280;6800;50.940;6.940;2022-07-29T08:39:47;100759.56;;;30.30;33.90
13456;BME280;6800;50.940;6.940;2022-07-29T08:43:49;100759.78;;;31.35;31.85
13456;BME280;6800;50.940;6.940;2022-07-29T08:47:49;100762.66;;;32.44;30.52
13456;BME280;6800;50.940;6.940;2022-07-29T08:51:50;100766.50;;;32.84;28.92
13456;BME280;6800;50.940;6.940;2022-07-29T08:55:52;100785.72;;;33.35;28.98
13456;BME280;6800;50.940;6.940;2022-07-29T08:59:54;100772.59;;;33.62;28.50
13456;BME280;6800;50.940;6.940;2022-07-29T09:03:55;100779.78;;;33.79;28.12
13456;BME280;6800;50.940;6.940;2022-07-29T09:07:56;100784.00;;;33.87;28.01
13456;BME280;6800;50.940;6.940;2022-07-29T09:12:00;100777.41;;;34.06;27.60
13456;BME280;6800;50.940;6.940;2022-07-29T09:16:01;100776.63;;;34.06;28.50
13456;BME280;6800;50.940;6.940;2022-07-29T09:20:09;100778.25;;;33.83;28.12
13456;BME280;6800;50.940;6.940;2022-07-29T09:24:12;100768.94;;;34.14;28.69
13456;BME280;6800;50.940;6.940;2022-07-29T09:28:16;100782.97;;;34.00;28.69
13456;BME280;6800;50.940;6.940;2022-07-29T09:32:16;100778.25;;;34.58;28.05
13456;BME280;6800;50.940;6.940;2022-07-29T09:36:16;100774.25;;;34.61;27.80
13456;BME280;6800;50.940;6.940;2022-07-29T09:40:25;100773.53;;;34.65;27.47
13456;BME280;6800;50.940;6.940;2022-07-29T09:44:26;100783.94;;;35.79;26.17
13456;BME280;6800;50.940;6.940;2022-07-29T09:48:26;100784.13;;;36.11;26.12
13456;BME280;6800;50.940;6.940;2022-07-29T09:52:29;100773.41;;;36.64;25.05
13456;BME280;6800;50.940;6.940;2022-07-29T09:56:40;100775.00;;;36.60;25.04
13456;BME280;6800;50.940;6.940;2022-07-29T10:00:42;100788.75;;;36.32;24.76
13456;BME280;6800;50.940;6.940;2022-07-29T10:04:43;100791.81;;;36.57;24.24
13456;BME280;6800;50.940;6.940;2022-07-29T10:08:43;100778.34;;;36.46;24.35
13456;BME280;6800;50.940;6.940;2022-07-29T10:13:01;100779.34;;;36.18;24.38
13456;BME280;6800;50.940;6.940;2022-07-29T10:17:03;100790.16;;;36.13;25.29
13456;BME280;6800;50.940;6.940;2022-07-29T10:21:03;100776.13;;;36.43;24.84
13456;BME280;6800;50.940;6.940;2022-07-29T10:25:04;100778.81;;;35.99;25.37
13456;BME280;6800;50.940;6.940;2022-07-29T10:29:04;100790.41;;;36.33;24.62
13456;BME280;6800;50.940;6.940;2022-07-29T10:33:25;100785.59;;;36.40;24.60
13456;BME280;6800;50.940;6.940;2022-07-29T10:42:18;100780.13;;;39.08;21.77
13456;BME280;6800;50.940;6.940;2022-07-29T10:46:20;100772.47;;;40.54;19.84
13456;BME280;6800;50.940;6.940;2022-07-29T10:50:20;100777.53;;;40.27;19.54
13456;BME280;6800;50.940;6.940;2022-07-29T10:58:35;100760.47;;;40.94;19.42
13456;BME280;6800;50.940;6.940;2022-07-29T11:15:21;100761.06;;;43.04;16.33
13456;BME280;6800;50.940;6.940;2022-07-29T11:19:22;100758.22;;;43.87;16.24
13456;BME280;6800;50.940;6.940;2022-07-29T11:23:24;100755.88;;;43.94;16.16
13456;BME280;6800;50.940;6.940;2022-07-29T11:27:30;100748.66;;;44.11;16.33
13456;BME280;6800;50.940;6.940;2022-07-29T11:31:39;100755.25;;;43.24;16.52
13456;BME280;6800;50.940;6.940;2022-07-29T11:36:21;100749.66;;;43.75;15.76
13456;BME280;6800;50.940;6.940;2022-07-29T11:40:21;100747.97;;;43.33;16.10
13456;BME280;6800;50.940;6.940;2022-07-29T11:44:54;100746.50;;;42.85;16.73
13456;BME280;6800;50.940;6.940;2022-07-29T11:48:57;100750.00;;;42.34;17.22
13456;BME280;6800;50.940;6.940;2022-07-29T11:52:59;100752.50;;;43.24;16.28
13456;BME280;6800;50.940;6.940;2022-07-29T11:56:59;100745.78;;;42.79;16.79
13456;BME280;6800;50.940;6.940;2022-07-29T12:01:03;100746.75;;;41.85;17.36
13456;BME280;6800;50.940;6.940;2022-07-29T12:05:04;100749.47;;;42.32;17.18
13456;BME280;6800;50.940;6.940;2022-07-29T12:09:08;100743.25;;;42.03;17.29
13456;BME280;6800;50.940;6.940;2022-07-29T12:13:09;100739.66;;;41.27;18.28
13456;BME280;6800;50.940;6.940;2022-07-29T12:17:34;100755.19;;;40.64;18.38
13456;BME280;6800;50.940;6.940;2022-07-29T12:21:49;100755.22;;;39.80;18.92
13456;BME280;6800;50.940;6.940;2022-07-29T12:25:50;100748.72;;;39.25;19.55
13456;BME280;6800;50.940;6.940;2022-07-29T12:30:01;100754.38;;;39.84;18.97
13456;BME280;6800;50.940;6.940;2022-07-29T12:34:02;100748.03;;;40.09;18.44
13456;BME280;6800;50.940;6.940;2022-07-29T12:38:03;100746.81;;;39.26;19.06
13456;BME280;6800;50.940;6.940;2022-07-29T12:42:14;100753.53;;;39.99;18.93
13456;BME280;6800;50.940;6.940;2022-07-29T12:46:15;100752.53;;;39.44;18.98
13456;BME280;6800;50.940;6.940;2022-07-29T12:50:16;100742.69;;;39.58;18.29
13456;BME280;6800;50.940;6.940;2022-07-29T12:54:17;100736.97;;;39.55;18.36
13456;BME280;6800;50.940;6.940;2022-07-29T12:58:38;100743.44;;;39.99;18.16
13456;BME280;6800;50.940;6.940;2022-07-29T13:02:40;100727.84;;;38.49;18.82
13456;BME280;6800;50.940;6.940;2022-07-29T13:06:45;100729.03;;;38.98;18.44
13456;BME280;6800;50.940;6.940;2022-07-29T13:10:45;100736.78;;;38.29;19.77
13456;BME280;6800;50.940;6.940;2022-07-29T13:14:47;100735.31;;;39.34;18.50
13456;BME280;6800;50.940;6.940;2022-07-29T13:18:48;100740.50;;;39.60;18.06
13456;BME280;6800;50.940;6.940;2022-07-29T13:22:48;100734.22;;;38.99;18.93
13456;BME280;6800;50.940;6.940;2022-07-29T13:26:49;100734.41;;;38.53;19.20
13456;BME280;6800;50.940;6.940;2022-07-29T13:30:49;100732.91;;;38.15;19.34
13456;BME280;6800;50.940;6.940;2022-07-29T13:34:51;100737.22;;;38.83;20.48
13456;BME280;6800;50.940;6.940;2022-07-29T13:38:51;100731.72;;;38.68;21.29
13456;BME280;6800;50.940;6.940;2022-07-29T13:42:51;100733.19;;;37.72;21.60
13456;BME280;6800;50.940;6.940;2022-07-29T13:46:52;100730.06;;;37.95;21.70
13456;BME280;6800;50.940;6.940;2022-07-29T13:50:52;100728.13;;;38.62;20.91
13456;BME280;6800;50.940;6.940;2022-07-29T13:54:52;100727.03;;;38.63;20.68
13456;BME280;6800;50.940;6.940;2022-07-29T13:58:53;100729.56;;;39.05;20.08
13456;BME280;6800;50.940;6.940;2022-07-29T14:02:53;100731.78;;;39.23;19.94
13456;BME280;6800;50.940;6.940;2022-07-29T14:06:53;100729.56;;;39.05;20.14
13456;BME280;6800;50.940;6.940;2022-07-29T14:10:54;100736.50;;;37.79;21.49
13456;BME280;6800;50.940;6.940;2022-07-29T14:14:54;100727.19;;;38.21;20.79
13456;BME280;6800;50.940;6.940;2022-07-29T14:18:54;100727.69;;;38.13;20.28
13456;BME280;6800;50.940;6.940;2022-07-29T14:22:55;100726.69;;;38.35;20.34
13456;BME280;6800;50.940;6.940;2022-07-29T14:26:56;100727.50;;;38.25;20.60
13456;BME280;6800;50.940;6.940;2022-07-29T14:30:56;100733.91;;;37.99;20.65
13456;BME280;6800;50.940;6.940;2022-07-29T14:34:56;100728.16;;;37.48;21.47
13456;BME280;6800;50.940;6.940;2022-07-29T14:38:57;100732.13;;;37.78;21.65
13456;BME280;6800;50.940;6.940;2022-07-29T14:42:57;100736.28;;;37.80;21.04
13456;BME280;6800;50.940;6.940;2022-07-29T14:46:58;100731.97;;;37.52;21.42
13456;BME280;6800;50.940;6.940;2022-07-29T14:50:59;100741.31;;;38.13;20.54
13456;BME280;6800;50.940;6.940;2022-07-29T14:55:02;100756.56;;;37.99;20.95
13456;BME280;6800;50.940;6.940;2022-07-29T14:59:02;100750.59;;;37.66;20.75
13456;BME280;6800;50.940;6.940;2022-07-29T15:03:03;100749.69;;;37.50;21.23
13456;BME280;6800;50.940;6.940;2022-07-29T15:07:03;100753.91;;;37.68;21.11
13456;BME280;6800;50.940;6.940;2022-07-29T15:11:04;100752.25;;;38.13;21.06
13456;BME280;6800;50.940;6.940;2022-07-29T15:15:05;100761.69;;;37.49;21.41
13456;BME280;6800;50.940;6.940;2022-07-29T15:19:05;100745.94;;;37.61;20.75
13456;BME280;6800;50.940;6.940;2022-07-29T15:23:05;100751.34;;;37.51;20.77
13456;BME280;6800;50.940;6.940;2022-07-29T15:27:09;100755.44;;;36.42;21.58
13456;BME280;6800;50.940;6.940;2022-07-29T15:31:14;100752.03;;;37.05;20.87
13456;BME280;6800;50.940;6.940;2022-07-29T15:35:14;100752.47;;;37.23;21.55
13456;BME280;6800;50.940;6.940;2022-07-29T15:39:14;100755.22;;;37.65;21.03
13456;BME280;6800;50.940;6.940;2022-07-29T15:43:14;100751.63;;;37.54;21.06
13456;BME280;6800;50.940;6.940;2022-07-29T15:47:15;100751.91;;;36.95;21.48
13456;BME280;6800;50.940;6.940;2022-07-29T15:51:15;100748.06;;;37.22;20.70
13456;BME280;6800;50.940;6.940;2022-07-29T15:55:15;100746.63;;;37.10;21.45
13456;BME280;6800;50.940;6.940;2022-07-29T15:59:16;100748.78;;;37.08;21.52
13456;BME280;6800;50.940;6.940;2022-07-29T16:03:16;100750.97;;;36.84;20.77
13456;BME280;6800;50.940;6.940;2022-07-29T16:07:17;100747.97;;;37.07;20.53
13456;BME280;6800;50.940;6.940;2022-07-29T16:11:17;100744.03;;;36.71;21.20
13456;BME280;6800;50.940;6.940;2022-07-29T16:15:17;100745.44;;;36.47;21.41
13456;BME280;6800;50.940;6.940;2022-07-29T16:19:18;100750.53;;;36.65;20.59
13456;BME280;6800;50.940;6.940;2022-07-29T16:23:18;100753.06;;;36.50;20.63
13456;BME280;6800;50.940;6.940;2022-07-29T16:27:18;100747.50;;;36.89;20.06
13456;BME280;6800;50.940;6.940;2022-07-29T16:31:23;100745.44;;;36.74;19.95
13456;BME280;6800;50.940;6.940;2022-07-29T16:35:24;100741.88;;;36.73;20.43
13456;BME280;6800;50.940;6.940;2022-07-29T16:39:24;100745.75;;;35.91;20.34
13456;BME280;6800;50.940;6.940;2022-07-29T16:43:25;100748.59;;;36.18;20.34
13456;BME280;6800;50.940;6.940;2022-07-29T16:47:25;100761.78;;;36.47;19.90
13456;BME280;6800;50.940;6.940;2022-07-29T16:51:25;100758.78;;;36.49;20.17
13456;BME280;6800;50.940;6.940;2022-07-29T16:55:26;100767.06;;;36.59;19.84
13456;BME280;6800;50.940;6.940;2022-07-29T16:59:27;100774.53;;;36.47;20.49
13456;BME280;6800;50.940;6.940;2022-07-29T17:03:28;100765.09;;;36.54;20.47
13456;BME280;6800;50.940;6.940;2022-07-29T17:07:28;100766.34;;;36.68;20.19
13456;BME280;6800;50.940;6.940;2022-07-29T17:11:30;100777.56;;;36.50;20.54
13456;BME280;6800;50.940;6.940;2022-07-29T17:15:30;100782.06;;;36.61;20.40
13456;BME280;6800;50.940;6.940;2022-07-29T17:19:32;100791.31;;;36.60;21.05
13456;BME280;6800;50.940;6.940;2022-07-29T17:23:34;100786.19;;;36.91;20.54
13456;BME280;6800;50.940;6.940;2022-07-29T17:27:34;100794.41;;;36.69;20.84
13456;BME280;6800;50.940;6.940;2022-07-29T17:31:36;100791.06;;;36.62;21.42
13456;BME280;6800;50.940;6.940;2022-07-29T17:35:36;100788.28;;;36.84;21.15
13456;BME280;6800;50.940;6.940;2022-07-29T17:39:55;100789.25;;;36.72;21.70
13456;BME280;6800;50.940;6.940;2022-07-29T17:43:56;100797.69;;;37.24;21.10
13456;BME280;6800;50.940;6.940;2022-07-29T17:47:56;100798.50;;;36.93;21.42
13456;BME280;6800;50.940;6.940;2022-07-29T17:51:56;100801.94;;;35.02;24.21
13456;BME280;6800;50.940;6.940;2022-07-29T17:55:57;100805.19;;;35.66;23.18
13456;BME280;6800;50.940;6.940;2022-07-29T17:59:57;100815.50;;;35.02;24.26
13456;BME280;6800;50.940;6.940;2022-07-29T18:03:58;100815.78;;;36.17;22.91
13456;BME280;6800;50.940;6.940;2022-07-29T18:07:58;100811.03;;;34.96;24.33
13456;BME280;6800;50.940;6.940;2022-07-29T18:11:58;100818.31;;;36.24;23.30
13456;BME280;6800;50.940;6.940;2022-07-29T18:15:59;100821.75;;;35.97;23.48
13456;BME280;6800;50.940;6.940;2022-07-29T18:19:59;100823.22;;;36.27;23.61
13456;BME280;6800;50.940;6.940;2022-07-29T18:24:00;100823.00;;;36.28;23.51
13456;BME280;6800;50.940;6.940;2022-07-29T18:28:01;100834.31;;;36.20;23.00
13456;BME280;6800;50.940;6.940;2022-07-29T18:32:01;100836.31;;;36.08;22.85
13456;BME280;6800;50.940;6.940;2022-07-29T18:36:02;100837.75;;;35.61;23.84
13456;BME280;6800;50.940;6.940;2022-07-29T18:40:03;100840.09;;;35.74;23.58
13456;BME280;6800;50.940;6.940;2022-07-29T18:44:04;100835.84;;;35.78;23.75
13456;BME280;6800;50.940;6.940;2022-07-29T18:48:04;100835.59;;;35.01;23.82
13456;BME280;6800;50.940;6.940;2022-07-29T18:52:07;100839.41;;;34.26;25.44
13456;BME280;6800;50.940;6.940;2022-07-29T18:56:07;100838.44;;;34.32;25.18
13456;BME280;6800;50.940;6.940;2022-07-29T19:00:09;100846.69;;;34.37;24.61
13456;BME280;6800;50.940;6.940;2022-07-29T19:04:11;100844.59;;;35.18;23.59
13456;BME280;6800;50.940;6.940;2022-07-29T19:08:11;100838.41;;;34.67;24.98
13456;BME280;6800;50.940;6.940;2022-07-29T19:12:11;100835.59;;;35.01;23.89
13456;BME280;6800;50.940;6.940;2022-07-29T19:16:12;100836.97;;;34.76;24.71
13456;BME280;6800;50.940;6.940;2022-07-29T19:20:13;100839.78;;;34.18;25.01
13456;BME280;6800;50.940;6.940;2022-07-29T19:24:14;100844.97;;;34.82;24.64
13456;BME280;6800;50.940;6.940;2022-07-29T19:28:16;100837.97;;;34.86;24.24
13456;BME280;6800;50.940;6.940;2022-07-29T19:32:18;100842.59;;;34.00;25.91
13456;BME280;6800;50.940;6.940;2022-07-29T19:36:18;100855.91;;;34.24;24.90
13456;BME280;6800;50.940;6.940;2022-07-29T19:40:19;100856.59;;;33.73;25.80
13456;BME280;6800;50.940;6.940;2022-07-29T19:44:19;100859.56;;;33.72;25.72
13456;BME280;6800;50.940;6.940;2022-07-29T19:48:19;100862.25;;;33.72;25.88
13456;BME280;6800;50.940;6.940;2022-07-29T19:52:20;100868.19;;;34.15;25.67
13456;BME280;6800;50.940;6.940;2022-07-29T19:56:20;100882.78;;;34.37;24.73
13456;BME280;6800;50.940;6.940;2022-07-29T20:00:21;100876.63;;;34.65;24.61
13456;BME280;6800;50.940;6.940;2022-07-29T20:04:22;100886.56;;;34.36;25.05
13456;BME280;6800;50.940;6.940;2022-07-29T20:08:23;100888.34;;;34.54;25.29
13456;BME280;6800;50.940;6.940;2022-07-29T20:12:23;100889.84;;;34.62;24.83
13456;BME280;6800;50.940;6.940;2022-07-29T20:16:24;100889.25;;;34.48;25.49
13456;BME280;6800;50.940;6.940;2022-07-29T20:20:24;100890.09;;;34.25;25.13
13456;BME280;6800;50.940;6.940;2022-07-29T20:24:25;100894.81;;;34.07;25.90
13456;BME280;6800;50.940;6.940;2022-07-29T20:28:25;100902.72;;;34.20;25.59
13456;BME280;6800;50.940;6.940;2022-07-29T20:32:25;100906.81;;;33.99;25.54
13456;BME280;6800;50.940;6.940;2022-07-29T20:36:26;100909.94;;;34.14;25.64
13456;BME280;6800;50.940;6.940;2022-07-29T20:40:27;100903.53;;;34.09;25.71
13456;BME280;6800;50.940;6.940;2022-07-29T20:44:28;100904.59;;;34.19;25.73
13456;BME280;6800;50.940;6.940;2022-07-29T20:48:28;100904.25;;;34.04;25.50
13456;BME280;6800;50.940;6.940;2022-07-29T20:52:29;100899.31;;;34.01;25.52
13456;BME280;6800;50.940;6.940;2022-07-29T20:56:29;100913.06;;;34.00;25.53
13456;BME280;6800;50.940;6.940;2022-07-29T21:00:30;100908.50;;;34.23;25.86
13456;BME280;6800;50.940;6.940;2022-07-29T21:04:30;100905.06;;;34.28;25.97
13456;BME280;6800;50.940;6.940;2022-07-29T21:08:30;100913.78;;;34.30;25.35
13456;BME280;6800;50.940;6.940;2022-07-29T21:12:34;100917.22;;;34.14;25.54
13456;BME280;6800;50.940;6.940;2022-07-29T21:16:34;100922.53;;;34.09;25.58
13456;BME280;6800;50.940;6.940;2022-07-29T21:20:35;100919.59;;;34.10;26.13
13456;BME280;6800;50.940;6.940;2022-07-29T21:24:35;100923.28;;;33.98;26.34
13456;BME280;6800;50.940;6.940;2022-07-29T21:28:36;100928.63;;;34.04;25.96
13456;BME280;6800;50.940;6.940;2022-07-29T21:32:39;100941.63;;;34.14;26.20
13456;BME280;6800;50.940;6.940;2022-07-29T21:36:39;100939.72;;;34.03;26.10
13456;BME280;6800;50.940;6.940;2022-07-29T21:40:39;100942.75;;;33.95;26.85
13456;BME280;6800;50.940;6.940;2022-07-29T21:44:39;100951.66;;;34.13;26.22
13456;BME280;6800;50.940;6.940;2022-07-29T21:48:41;100950.91;;;34.06;26.63
13456;BME280;6800;50.940;6.940;2022-07-29T21:52:41;100950.81;;;34.01;26.97